sensor_id;sensor_type;location;lat;lon;timestamp;temperature;humidity
12872;DHT22;6504;53.766;9.626;2023-07-16T00:01:28;22.10;99.90
12872;DHT22;6504;53.766;9.626;2023-07-16T00:03:58;22.00;99.90
12872;DHT22;6504;53.766;9.626;2023-07-16T00:06:26;22.00;99.90
12872;DHT22;6504;53.766;9.626;2023-07-16T00:08:54;21.90;99.90
12872;DHT22;6504;53.766;9.626;2023-07-16T00:11:22;21.90;99.90
12872;DHT22;6504;53.766;9.626;2023-07-16T00:13:50;21.90;99.90
12872;DHT22;6504;53.766;9.626;2023-07-16T00:16:18;21.90;99.90
12872;DHT22;6504;53.766;9.626;2023-07-16T00:18:47;21.90;99.90
12872;DHT22;6504;53.766;9.626;2023-07-16T00:21:16;21.90;99.90
12872;DHT22;6504;53.766;9.626;2023-07-16T00:23:44;21.90;99.90
12872;DHT22;6504;53.766;9.626;2023-07-16T00:26:12;21.90;99.90
12872;DHT22;6504;53.766;9.626;2023-07-16T00:28:41;21.90;99.90
12872;DHT22;6504;53.766;9.626;2023-07-16T00:31:10;21.90;99.90
12872;DHT22;6504;53.766;9.626;2023-07-16T00:33:38;21.90;99.90
12872;DHT22;6504;53.766;9.626;2023-07-16T00:36:06;21.90;99.90
12872;DHT22;6504;53.766;9.626;2023-07-16T00:38:35;21.90;99.90
12872;DHT22;6504;53.766;9.626;2023-07-16T00:41:03;21.90;99.90
12872;DHT22;6504;53.766;9.626;2023-07-16T00:43:31;21.80;99.90
12872;DHT22;6504;53.766;9.626;2023-07-16T00:45:59;21.80;99.90
12872;DHT22;6504;53.766;9.626;2023-07-16T00:48:28;21.80;99.90
12872;DHT22;6504;53.766;9.626;2023-07-16T00:50:57;21.80;99.90
12872;DHT22;6504;53.766;9.626;2023-07-16T00:53:25;21.70;99.90
12872;DHT22;6504;53.766;9.626;2023-07-16T00:55:54;21.70;99.90
12872;DHT22;6504;53.766;9.626;2023-07-16T00:58:22;21.60;99.90
12872;DHT22;6504;53.766;9.626;2023-07-16T01:00:50;21.60;99.90
12872;DHT22;6504;53.766;9.626;2023-07-16T01:03:18;21.60;99.90
12872;DHT22;6504;53.766;9.626;2023-07-16T01:05:50;21.50;99.90
12872;DHT22;6504;53.766;9.626;2023-07-16T01:08:28;21.50;99.90
12872;DHT22;6504;53.766;9.626;2023-07-16T01:11:00;21.50;99.90
12872;DHT22;6504;53.766;9.626;2023-07-16T01:13:31;21.40;99.90
12872;DHT22;6504;53.766;9.626;2023-07-16T01:16:00;21.40;99.90
12872;DHT22;6504;53.766;9.626;2023-07-16T01:18:28;21.40;99.90
12872;DHT22;6504;53.766;9.626;2023-07-16T01:20:56;21.40;99.90
12872;DHT22;6504;53.766;9.626;2023-07-16T01:23:34;21.40;99.90
12872;DHT22;6504;53.766;9.626;2023-07-16T01:26:19;21.40;99.90
12872;DHT22;6504;53.766;9.626;2023-07-16T01:29:18;21.40;99.90
12872;DHT22;6504;53.766;9.626;2023-07-16T01:31:50;21.30;99.90
12872;DHT22;6504;53.766;9.626;2023-07-16T01:34:19;21.20;99.90
12872;DHT22;6504;53.766;9.626;2023-07-16T01:36:48;21.20;99.90
12872;DHT22;6504;53.766;9.626;2023-07-16T01:39:17;21.20;99.90
12872;DHT22;6504;53.766;9.626;2023-07-16T01:41:46;21.10;99.90
12872;DHT22;6504;53.766;9.626;2023-07-16T01:44:15;21.10;99.90
12872;DHT22;6504;53.766;9.626;2023-07-16T01:46:43;21.10;99.90
12872;DHT22;6504;53.766;9.626;2023-07-16T01:49:11;21.00;99.90
12872;DHT22;6504;53.766;9.626;2023-07-16T01:51:40;21.00;99.90
12872;DHT22;6504;53.766;9.626;2023-07-16T01:54:08;20.90;99.90
12872;DHT22;6504;53.766;9.626;2023-07-16T01:56:36;20.90;99.90
12872;DHT22;6504;53.766;9.626;2023-07-16T01:59:04;20.80;99.90
12872;DHT22;6504;53.766;9.626;2023-07-16T02:01:33;20.80;99.90
12872;DHT22;6504;53.766;9.626;2023-07-16T02:04:02;20.80;99.90
12872;DHT22;6504;53.766;9.626;2023-07-16T02:06:30;20.80;99.90
12872;DHT22;6504;53.766;9.626;2023-07-16T02:08:58;20.90;99.90
12872;DHT22;6504;53.766;9.626;2023-07-16T02:11:26;20.80;99.90
12872;DHT22;6504;53.766;9.626;2023-07-16T02:13:54;20.80;99.90
12872;DHT22;6504;53.766;9.626;2023-07-16T02:16:22;20.80;99.90
12872;DHT22;6504;53.766;9.626;2023-07-16T02:18:52;20.80;99.90
12872;DHT22;6504;53.766;9.626;2023-07-16T02:21:20;20.80;99.90
12872;DHT22;6504;53.766;9.626;2023-07-16T02:23:48;20.80;99.90
12872;DHT22;6504;53.766;9.626;2023-07-16T02:26:16;20.70;99.90
12872;DHT22;6504;53.766;9.626;2023-07-16T02:28:44;20.60;99.90
12872;DHT22;6504;53.766;9.626;2023-07-16T02:31:12;20.70;99.90
12872;DHT22;6504;53.766;9.626;2023-07-16T02:33:40;20.70;99.90
12872;DHT22;6504;53.766;9.626;2023-07-16T02:36:10;20.60;99.90
12872;DHT22;6504;53.766;9.626;2023-07-16T02:38:38;20.60;99.90
12872;DHT22;6504;53.766;9.626;2023-07-16T02:41:06;20.70;99.90
12872;DHT22;6504;53.766;9.626;2023-07-16T02:43:34;20.60;99.90
12872;DHT22;6504;53.766;9.626;2023-07-16T02:46:02;20.50;99.90
12872;DHT22;6504;53.766;9.626;2023-07-16T02:48:30;20.40;99.90
12872;DHT22;6504;53.766;9.626;2023-07-16T02:50:58;20.40;99.90
12872;DHT22;6504;53.766;9.626;2023-07-16T02:53:27;20.30;99.90
12872;DHT22;6504;53.766;9.626;2023-07-16T02:55:55;20.20;99.90
12872;DHT22;6504;53.766;9.626;2023-07-16T02:58:23;20.20;99.90
12872;DHT22;6504;53.766;9.626;2023-07-16T03:00:51;20.20;99.90
12872;DHT22;6504;53.766;9.626;2023-07-16T03:03:19;20.20;99.90
12872;DHT22;6504;53.766;9.626;2023-07-16T03:05:47;20.20;99.90
12872;DHT22;6504;53.766;9.626;2023-07-16T03:08:15;20.20;99.90
12872;DHT22;6504;53.766;9.626;2023-07-16T03:10:45;20.20;99.90
12872;DHT22;6504;53.766;9.626;2023-07-16T03:13:13;20.30;99.90
12872;DHT22;6504;53.766;9.626;2023-07-16T03:15:41;20.30;99.90
12872;DHT22;6504;53.766;9.626;2023-07-16T03:18:09;20.30;99.90
12872;DHT22;6504;53.766;9.626;2023-07-16T03:20:37;20.30;99.90
12872;DHT22;6504;53.766;9.626;2023-07-16T03:23:05;20.40;99.90
12872;DHT22;6504;53.766;9.626;2023-07-16T03:25:33;20.40;99.90
12872;DHT22;6504;53.766;9.626;2023-07-16T03:28:03;20.40;99.90
12872;DHT22;6504;53.766;9.626;2023-07-16T03:30:31;20.40;99.90
12872;DHT22;6504;53.766;9.626;2023-07-16T03:32:59;20.40;99.90
12872;DHT22;6504;53.766;9.626;2023-07-16T03:35:28;20.40;99.90
12872;DHT22;6504;53.766;9.626;2023-07-16T03:37:56;20.40;99.90
12872;DHT22;6504;53.766;9.626;2023-07-16T03:40:25;20.40;99.90
12872;DHT22;6504;53.766;9.626;2023-07-16T03:42:53;20.30;99.90
12872;DHT22;6504;53.766;9.626;2023-07-16T03:45:24;20.30;99.90
12872;DHT22;6504;53.766;9.626;2023-07-16T03:47:52;20.20;99.90
12872;DHT22;6504;53.766;9.626;2023-07-16T03:50:20;20.20;99.90
12872;DHT22;6504;53.766;9.626;2023-07-16T03:52:48;20.10;99.90
12872;DHT22;6504;53.766;9.626;2023-07-16T03:55:16;20.10;99.90
12872;DHT22;6504;53.766;9.626;2023-07-16T03:57:44;20.00;99.90
12872;DHT22;6504;53.766;9.626;2023-07-16T04:00:12;20.00;99.90
12872;DHT22;6504;53.766;9.626;2023-07-16T04:02:42;20.00;99.90
12872;DHT22;6504;53.766;9.626;2023-07-16T04:05:10;20.00;99.90
12872;DHT22;6504;53.766;9.626;2023-07-16T04:07:38;20.00;99.90
12872;DHT22;6504;53.766;9.626;2023-07-16T04:10:07;20.00;99.90
12872;DHT22;6504;53.766;9.626;2023-07-16T04:12:35;19.90;99.90
12872;DHT22;6504;53.766;9.626;2023-07-16T04:15:08;19.90;99.90
12872;DHT22;6504;53.766;9.626;2023-07-16T04:17:36;19.80;99.90
12872;DHT22;6504;53.766;9.626;2023-07-16T04:20:07;19.80;99.90
12872;DHT22;6504;53.766;9.626;2023-07-16T04:22:35;19.70;99.90
12872;DHT22;6504;53.766;9.626;2023-07-16T04:25:04;19.80;99.90
12872;DHT22;6504;53.766;9.626;2023-07-16T04:27:32;19.80;99.90
12872;DHT22;6504;53.766;9.626;2023-07-16T04:30:00;19.80;99.90
12872;DHT22;6504;53.766;9.626;2023-07-16T04:32:28;19.80;99.90
12872;DHT22;6504;53.766;9.626;2023-07-16T04:34:56;19.70;99.90
12872;DHT22;6504;53.766;9.626;2023-07-16T04:37:26;19.70;99.90
12872;DHT22;6504;53.766;9.626;2023-07-16T04:39:53;19.70;99.90
12872;DHT22;6504;53.766;9.626;2023-07-16T04:42:22;19.80;99.90
12872;DHT22;6504;53.766;9.626;2023-07-16T04:44:50;19.80;99.90
12872;DHT22;6504;53.766;9.626;2023-07-16T04:47:18;19.70;99.90
12872;DHT22;6504;53.766;9.626;2023-07-16T04:49:46;19.70;99.90
12872;DHT22;6504;53.766;9.626;2023-07-16T04:52:14;19.80;99.90
12872;DHT22;6504;53.766;9.626;2023-07-16T04:54:43;19.80;99.90
12872;DHT22;6504;53.766;9.626;2023-07-16T04:57:11;19.80;99.90
12872;DHT22;6504;53.766;9.626;2023-07-16T04:59:39;19.80;99.90
12872;DHT22;6504;53.766;9.626;2023-07-16T05:02:07;19.80;99.90
12872;DHT22;6504;53.766;9.626;2023-07-16T05:04:35;19.80;99.90
12872;DHT22;6504;53.766;9.626;2023-07-16T05:07:04;19.70;99.90
12872;DHT22;6504;53.766;9.626;2023-07-16T05:09:32;19.70;99.90
12872;DHT22;6504;53.766;9.626;2023-07-16T05:12:01;19.70;99.90
12872;DHT22;6504;53.766;9.626;2023-07-16T05:14:30;19.70;99.90
12872;DHT22;6504;53.766;9.626;2023-07-16T05:16:58;19.80;99.90
12872;DHT22;6504;53.766;9.626;2023-07-16T05:19:26;19.80;99.90
12872;DHT22;6504;53.766;9.626;2023-07-16T05:21:54;19.80;99.90
12872;DHT22;6504;53.766;9.626;2023-07-16T05:24:22;19.80;99.90
12872;DHT22;6504;53.766;9.626;2023-07-16T05:26:50;19.90;99.90
12872;DHT22;6504;53.766;9.626;2023-07-16T05:29:22;19.90;99.90
12872;DHT22;6504;53.766;9.626;2023-07-16T05:31:50;19.90;99.90
12872;DHT22;6504;53.766;9.626;2023-07-16T05:34:18;19.90;99.90
12872;DHT22;6504;53.766;9.626;2023-07-16T05:36:46;19.90;99.90
12872;DHT22;6504;53.766;9.626;2023-07-16T05:39:14;20.00;99.90
12872;DHT22;6504;53.766;9.626;2023-07-16T05:41:43;20.00;99.90
12872;DHT22;6504;53.766;9.626;2023-07-16T05:44:11;20.00;99.90
12872;DHT22;6504;53.766;9.626;2023-07-16T05:46:40;20.00;99.90
12872;DHT22;6504;53.766;9.626;2023-07-16T05:49:08;20.00;99.90
12872;DHT22;6504;53.766;9.626;2023-07-16T05:51:36;20.00;99.90
12872;DHT22;6504;53.766;9.626;2023-07-16T05:54:04;20.00;99.90
12872;DHT22;6504;53.766;9.626;2023-07-16T05:56:33;20.10;99.90
12872;DHT22;6504;53.766;9.626;2023-07-16T05:59:01;20.10;99.90
12872;DHT22;6504;53.766;9.626;2023-07-16T06:01:29;20.20;99.90
12872;DHT22;6504;53.766;9.626;2023-07-16T06:03:58;20.20;99.90
12872;DHT22;6504;53.766;9.626;2023-07-16T06:06:27;20.30;99.90
12872;DHT22;6504;53.766;9.626;2023-07-16T06:08:55;20.30;99.90
12872;DHT22;6504;53.766;9.626;2023-07-16T06:11:23;20.30;99.90
12872;DHT22;6504;53.766;9.626;2023-07-16T06:13:53;20.40;99.90
12872;DHT22;6504;53.766;9.626;2023-07-16T06:16:22;20.40;99.90
12872;DHT22;6504;53.766;9.626;2023-07-16T06:18:50;20.50;99.90
12872;DHT22;6504;53.766;9.626;2023-07-16T06:21:19;20.50;99.90
12872;DHT22;6504;53.766;9.626;2023-07-16T06:23:47;20.60;99.90
12872;DHT22;6504;53.766;9.626;2023-07-16T06:26:16;20.60;99.90
12872;DHT22;6504;53.766;9.626;2023-07-16T06:28:44;20.60;99.90
12872;DHT22;6504;53.766;9.626;2023-07-16T06:31:16;20.70;99.90
12872;DHT22;6504;53.766;9.626;2023-07-16T06:33:44;20.80;99.90
12872;DHT22;6504;53.766;9.626;2023-07-16T06:36:13;20.90;99.90
12872;DHT22;6504;53.766;9.626;2023-07-16T06:38:43;20.80;99.90
12872;DHT22;6504;53.766;9.626;2023-07-16T06:41:11;20.90;99.90
12872;DHT22;6504;53.766;9.626;2023-07-16T06:43:39;20.90;99.90
12872;DHT22;6504;53.766;9.626;2023-07-16T06:46:07;20.90;99.90
12872;DHT22;6504;53.766;9.626;2023-07-16T06:48:35;21.00;99.90
12872;DHT22;6504;53.766;9.626;2023-07-16T06:51:03;21.10;99.90
12872;DHT22;6504;53.766;9.626;2023-07-16T06:53:32;21.10;99.90
12872;DHT22;6504;53.766;9.626;2023-07-16T06:56:02;21.20;99.90
12872;DHT22;6504;53.766;9.626;2023-07-16T06:58:33;21.20;99.90
12872;DHT22;6504;53.766;9.626;2023-07-16T07:01:01;21.30;99.90
12872;DHT22;6504;53.766;9.626;2023-07-16T07:03:30;21.40;99.90
12872;DHT22;6504;53.766;9.626;2023-07-16T07:06:02;21.50;99.90
12872;DHT22;6504;53.766;9.626;2023-07-16T07:08:30;21.50;99.90
12872;DHT22;6504;53.766;9.626;2023-07-16T07:10:58;21.60;99.90
12872;DHT22;6504;53.766;9.626;2023-07-16T07:13:28;21.60;99.90
12872;DHT22;6504;53.766;9.626;2023-07-16T07:15:56;21.70;99.90
12872;DHT22;6504;53.766;9.626;2023-07-16T07:18:25;21.70;99.90
12872;DHT22;6504;53.766;9.626;2023-07-16T07:20:53;21.80;99.90
12872;DHT22;6504;53.766;9.626;2023-07-16T07:23:21;21.90;99.90
12872;DHT22;6504;53.766;9.626;2023-07-16T07:25:49;22.00;99.90
12872;DHT22;6504;53.766;9.626;2023-07-16T07:28:19;22.00;99.90
12872;DHT22;6504;53.766;9.626;2023-07-16T07:30:48;22.00;99.90
12872;DHT22;6504;53.766;9.626;2023-07-16T07:33:16;22.00;99.90
12872;DHT22;6504;53.766;9.626;2023-07-16T07:35:44;22.10;99.90
12872;DHT22;6504;53.766;9.626;2023-07-16T07:38:12;22.20;99.90
12872;DHT22;6504;53.766;9.626;2023-07-16T07:40:42;22.30;99.90
12872;DHT22;6504;53.766;9.626;2023-07-16T07:43:11;22.30;99.90
12872;DHT22;6504;53.766;9.626;2023-07-16T07:45:39;22.40;99.90
12872;DHT22;6504;53.766;9.626;2023-07-16T07:48:08;22.40;99.90
12872;DHT22;6504;53.766;9.626;2023-07-16T07:50:36;22.50;99.90
12872;DHT22;6504;53.766;9.626;2023-07-16T07:53:05;22.60;99.90
12872;DHT22;6504;53.766;9.626;2023-07-16T07:55:34;22.70;99.90
12872;DHT22;6504;53.766;9.626;2023-07-16T07:58:02;22.70;99.90
12872;DHT22;6504;53.766;9.626;2023-07-16T08:00:30;22.70;99.90
12872;DHT22;6504;53.766;9.626;2023-07-16T08:02:58;22.70;99.90
12872;DHT22;6504;53.766;9.626;2023-07-16T08:05:28;22.70;99.90
12872;DHT22;6504;53.766;9.626;2023-07-16T08:07:56;22.70;99.90
12872;DHT22;6504;53.766;9.626;2023-07-16T08:10:24;22.80;99.90
12872;DHT22;6504;53.766;9.626;2023-07-16T08:12:52;22.80;99.90
12872;DHT22;6504;53.766;9.626;2023-07-16T08:15:20;22.90;99.90
12872;DHT22;6504;53.766;9.626;2023-07-16T08:17:48;22.90;99.90
12872;DHT22;6504;53.766;9.626;2023-07-16T08:20:16;23.00;99.90
12872;DHT22;6504;53.766;9.626;2023-07-16T08:22:46;23.00;99.90
12872;DHT22;6504;53.766;9.626;2023-07-16T08:25:14;23.00;99.90
12872;DHT22;6504;53.766;9.626;2023-07-16T08:27:42;23.10;99.90
12872;DHT22;6504;53.766;9.626;2023-07-16T08:30:10;23.20;99.90
12872;DHT22;6504;53.766;9.626;2023-07-16T08:32:38;23.20;99.90
12872;DHT22;6504;53.766;9.626;2023-07-16T08:35:07;23.30;99.90
12872;DHT22;6504;53.766;9.626;2023-07-16T08:37:38;23.40;99.90
12872;DHT22;6504;53.766;9.626;2023-07-16T08:40:10;23.50;99.90
12872;DHT22;6504;53.766;9.626;2023-07-16T08:42:38;23.60;99.90
12872;DHT22;6504;53.766;9.626;2023-07-16T08:45:10;23.70;99.90
12872;DHT22;6504;53.766;9.626;2023-07-16T08:47:38;23.80;99.90
12872;DHT22;6504;53.766;9.626;2023-07-16T08:50:07;23.90;99.90
12872;DHT22;6504;53.766;9.626;2023-07-16T08:52:36;23.90;99.90
12872;DHT22;6504;53.766;9.626;2023-07-16T08:55:04;23.80;99.90
12872;DHT22;6504;53.766;9.626;2023-07-16T08:57:35;23.80;99.90
12872;DHT22;6504;53.766;9.626;2023-07-16T09:00:06;23.80;99.90
12872;DHT22;6504;53.766;9.626;2023-07-16T09:02:35;23.80;99.90
12872;DHT22;6504;53.766;9.626;2023-07-16T09:05:04;23.80;99.90
12872;DHT22;6504;53.766;9.626;2023-07-16T09:07:33;23.70;99.90
12872;DHT22;6504;53.766;9.626;2023-07-16T09:10:01;23.60;99.90
12872;DHT22;6504;53.766;9.626;2023-07-16T09:12:29;23.50;99.90
12872;DHT22;6504;53.766;9.626;2023-07-16T09:14:59;23.50;99.90
12872;DHT22;6504;53.766;9.626;2023-07-16T09:17:27;23.50;99.90
12872;DHT22;6504;53.766;9.626;2023-07-16T09:19:55;23.50;99.90
12872;DHT22;6504;53.766;9.626;2023-07-16T09:22:23;23.40;99.90
12872;DHT22;6504;53.766;9.626;2023-07-16T09:24:51;23.40;99.90
12872;DHT22;6504;53.766;9.626;2023-07-16T09:27:19;23.40;99.90
12872;DHT22;6504;53.766;9.626;2023-07-16T09:29:48;23.40;99.90
12872;DHT22;6504;53.766;9.626;2023-07-16T09:32:19;23.40;99.90
12872;DHT22;6504;53.766;9.626;2023-07-16T09:34:49;23.50;99.90
12872;DHT22;6504;53.766;9.626;2023-07-16T09:37:18;23.50;99.90
12872;DHT22;6504;53.766;9.626;2023-07-16T09:39:47;23.50;99.90
12872;DHT22;6504;53.766;9.626;2023-07-16T09:42:16;23.60;99.90
12872;DHT22;6504;53.766;9.626;2023-07-16T09:44:47;23.70;99.90
12872;DHT22;6504;53.766;9.626;2023-07-16T09:47:15;23.70;99.90
12872;DHT22;6504;53.766;9.626;2023-07-16T09:49:45;23.70;99.90
12872;DHT22;6504;53.766;9.626;2023-07-16T09:52:14;23.70;99.90
12872;DHT22;6504;53.766;9.626;2023-07-16T09:54:44;23.60;99.90
12872;DHT22;6504;53.766;9.626;2023-07-16T09:57:14;23.40;99.90
12872;DHT22;6504;53.766;9.626;2023-07-16T09:59:42;23.30;99.90
12872;DHT22;6504;53.766;9.626;2023-07-16T10:02:13;23.20;99.90
12872;DHT22;6504;53.766;9.626;2023-07-16T10:04:41;23.20;99.90
12872;DHT22;6504;53.766;9.626;2023-07-16T10:07:20;23.10;99.90
12872;DHT22;6504;53.766;9.626;2023-07-16T10:09:52;23.10;99.90
12872;DHT22;6504;53.766;9.626;2023-07-16T10:12:24;23.00;99.90
12872;DHT22;6504;53.766;9.626;2023-07-16T10:14:53;23.00;99.90
12872;DHT22;6504;53.766;9.626;2023-07-16T10:17:24;23.00;99.90
12872;DHT22;6504;53.766;9.626;2023-07-16T10:19:56;23.00;99.90
12872;DHT22;6504;53.766;9.626;2023-07-16T10:22:33;23.00;99.90
12872;DHT22;6504;53.766;9.626;2023-07-16T10:25:03;23.10;99.90
12872;DHT22;6504;53.766;9.626;2023-07-16T10:27:32;23.00;99.90
12872;DHT22;6504;53.766;9.626;2023-07-16T10:30:01;23.00;99.90
12872;DHT22;6504;53.766;9.626;2023-07-16T10:32:32;22.90;99.90
12872;DHT22;6504;53.766;9.626;2023-07-16T10:35:01;22.90;99.90
12872;DHT22;6504;53.766;9.626;2023-07-16T10:37:29;23.00;99.90
12872;DHT22;6504;53.766;9.626;2023-07-16T10:40:00;23.10;99.90
12872;DHT22;6504;53.766;9.626;2023-07-16T10:42:31;23.30;99.90
12872;DHT22;6504;53.766;9.626;2023-07-16T10:45:00;23.30;99.90
12872;DHT22;6504;53.766;9.626;2023-07-16T10:47:32;23.50;99.90
12872;DHT22;6504;53.766;9.626;2023-07-16T10:50:04;23.60;99.90
12872;DHT22;6504;53.766;9.626;2023-07-16T10:52:32;23.80;99.90
12872;DHT22;6504;53.766;9.626;2023-07-16T10:55:02;23.80;99.90
12872;DHT22;6504;53.766;9.626;2023-07-16T10:57:30;23.80;99.90
12872;DHT22;6504;53.766;9.626;2023-07-16T10:59:59;23.90;99.90
12872;DHT22;6504;53.766;9.626;2023-07-16T11:02:28;24.00;99.90
12872;DHT22;6504;53.766;9.626;2023-07-16T11:04:56;24.20;99.90
12872;DHT22;6504;53.766;9.626;2023-07-16T11:07:27;24.20;99.90
12872;DHT22;6504;53.766;9.626;2023-07-16T11:09:55;24.20;99.90
12872;DHT22;6504;53.766;9.626;2023-07-16T11:12:26;24.20;99.90
12872;DHT22;6504;53.766;9.626;2023-07-16T11:14:55;24.30;99.90
12872;DHT22;6504;53.766;9.626;2023-07-16T11:17:24;24.40;99.90
12872;DHT22;6504;53.766;9.626;2023-07-16T11:19:53;24.50;99.90
12872;DHT22;6504;53.766;9.626;2023-07-16T11:22:25;24.60;99.90
12872;DHT22;6504;53.766;9.626;2023-07-16T11:24:54;24.60;99.90
12872;DHT22;6504;53.766;9.626;2023-07-16T11:27:24;24.70;99.90
12872;DHT22;6504;53.766;9.626;2023-07-16T11:29:54;24.80;99.90
12872;DHT22;6504;53.766;9.626;2023-07-16T11:32:27;24.90;99.90
12872;DHT22;6504;53.766;9.626;2023-07-16T11:34:56;24.90;99.90
12872;DHT22;6504;53.766;9.626;2023-07-16T11:37:25;24.90;99.90
12872;DHT22;6504;53.766;9.626;2023-07-16T11:39:57;24.80;99.90
12872;DHT22;6504;53.766;9.626;2023-07-16T11:42:28;24.60;99.90
12872;DHT22;6504;53.766;9.626;2023-07-16T11:44:58;24.50;99.90
12872;DHT22;6504;53.766;9.626;2023-07-16T11:47:27;24.40;99.90
12872;DHT22;6504;53.766;9.626;2023-07-16T11:49:57;24.40;99.90
12872;DHT22;6504;53.766;9.626;2023-07-16T11:52:26;24.30;99.90
12872;DHT22;6504;53.766;9.626;2023-07-16T11:54:57;24.30;99.90
12872;DHT22;6504;53.766;9.626;2023-07-16T11:57:26;24.40;99.90
12872;DHT22;6504;53.766;9.626;2023-07-16T11:59:54;24.40;99.90
12872;DHT22;6504;53.766;9.626;2023-07-16T12:02:25;24.30;99.90
12872;DHT22;6504;53.766;9.626;2023-07-16T12:04:54;24.30;99.90
12872;DHT22;6504;53.766;9.626;2023-07-16T12:07:31;24.20;99.90
12872;DHT22;6504;53.766;9.626;2023-07-16T12:10:00;24.10;99.90
12872;DHT22;6504;53.766;9.626;2023-07-16T12:12:29;24.20;99.90
12872;DHT22;6504;53.766;9.626;2023-07-16T12:14:57;24.40;99.90
12872;DHT22;6504;53.766;9.626;2023-07-16T12:17:27;24.40;99.90
12872;DHT22;6504;53.766;9.626;2023-07-16T12:19:55;24.40;99.90
12872;DHT22;6504;53.766;9.626;2023-07-16T12:22:24;24.30;99.90
12872;DHT22;6504;53.766;9.626;2023-07-16T12:24:52;24.20;99.90
12872;DHT22;6504;53.766;9.626;2023-07-16T12:27:20;24.20;99.90
12872;DHT22;6504;53.766;9.626;2023-07-16T12:29:49;24.20;99.90
12872;DHT22;6504;53.766;9.626;2023-07-16T12:32:18;24.30;99.90
12872;DHT22;6504;53.766;9.626;2023-07-16T12:34:49;24.40;99.90
12872;DHT22;6504;53.766;9.626;2023-07-16T12:37:17;24.30;99.90
12872;DHT22;6504;53.766;9.626;2023-07-16T12:39:45;24.30;99.90
12872;DHT22;6504;53.766;9.626;2023-07-16T12:42:13;24.20;99.90
12872;DHT22;6504;53.766;9.626;2023-07-16T12:44:41;24.10;99.90
12872;DHT22;6504;53.766;9.626;2023-07-16T12:47:09;24.00;99.90
12872;DHT22;6504;53.766;9.626;2023-07-16T12:49:37;24.00;99.90
12872;DHT22;6504;53.766;9.626;2023-07-16T12:52:07;24.00;99.90
12872;DHT22;6504;53.766;9.626;2023-07-16T12:54:35;24.00;99.90
12872;DHT22;6504;53.766;9.626;2023-07-16T12:57:04;24.00;99.90
12872;DHT22;6504;53.766;9.626;2023-07-16T12:59:32;24.20;99.90
12872;DHT22;6504;53.766;9.626;2023-07-16T13:02:00;24.20;99.90
12872;DHT22;6504;53.766;9.626;2023-07-16T13:04:29;24.30;99.90
12872;DHT22;6504;53.766;9.626;2023-07-16T13:06:57;24.20;99.90
12872;DHT22;6504;53.766;9.626;2023-07-16T13:09:26;24.20;99.90
12872;DHT22;6504;53.766;9.626;2023-07-16T13:11:54;24.20;99.90
12872;DHT22;6504;53.766;9.626;2023-07-16T13:14:22;24.30;99.90
12872;DHT22;6504;53.766;9.626;2023-07-16T13:16:50;24.50;99.90
12872;DHT22;6504;53.766;9.626;2023-07-16T13:19:18;24.70;99.90
12872;DHT22;6504;53.766;9.626;2023-07-16T13:21:46;24.80;99.90
12872;DHT22;6504;53.766;9.626;2023-07-16T13:24:14;25.00;99.90
12872;DHT22;6504;53.766;9.626;2023-07-16T13:26:44;25.10;99.90
12872;DHT22;6504;53.766;9.626;2023-07-16T13:29:14;25.20;99.90
12872;DHT22;6504;53.766;9.626;2023-07-16T13:31:42;25.30;99.90
12872;DHT22;6504;53.766;9.626;2023-07-16T13:34:10;25.30;99.90
12872;DHT22;6504;53.766;9.626;2023-07-16T13:36:38;25.20;99.90
12872;DHT22;6504;53.766;9.626;2023-07-16T13:39:07;25.10;99.90
12872;DHT22;6504;53.766;9.626;2023-07-16T13:41:35;25.10;99.90
12872;DHT22;6504;53.766;9.626;2023-07-16T13:44:04;25.30;99.90
12872;DHT22;6504;53.766;9.626;2023-07-16T13:46:32;25.40;99.90
12872;DHT22;6504;53.766;9.626;2023-07-16T13:49:01;25.60;99.90
12872;DHT22;6504;53.766;9.626;2023-07-16T13:51:29;25.70;99.90
12872;DHT22;6504;53.766;9.626;2023-07-16T13:53:57;25.70;99.90
12872;DHT22;6504;53.766;9.626;2023-07-16T13:56:25;25.70;99.90
12872;DHT22;6504;53.766;9.626;2023-07-16T13:58:53;25.60;99.90
12872;DHT22;6504;53.766;9.626;2023-07-16T14:01:24;25.50;99.90
12872;DHT22;6504;53.766;9.626;2023-07-16T14:03:52;25.40;99.90
12872;DHT22;6504;53.766;9.626;2023-07-16T14:06:20;25.20;99.90
12872;DHT22;6504;53.766;9.626;2023-07-16T14:08:48;25.00;99.90
12872;DHT22;6504;53.766;9.626;2023-07-16T14:11:16;24.90;99.90
12872;DHT22;6504;53.766;9.626;2023-07-16T14:13:45;24.70;99.90
12872;DHT22;6504;53.766;9.626;2023-07-16T14:16:15;24.50;99.90
12872;DHT22;6504;53.766;9.626;2023-07-16T14:18:45;24.50;99.90
12872;DHT22;6504;53.766;9.626;2023-07-16T14:21:13;24.40;99.90
12872;DHT22;6504;53.766;9.626;2023-07-16T14:23:41;24.40;99.90
12872;DHT22;6504;53.766;9.626;2023-07-16T14:26:09;24.50;99.90
12872;DHT22;6504;53.766;9.626;2023-07-16T14:28:37;24.60;99.90
12872;DHT22;6504;53.766;9.626;2023-07-16T14:31:05;24.70;99.90
12872;DHT22;6504;53.766;9.626;2023-07-16T14:33:33;24.80;99.90
12872;DHT22;6504;53.766;9.626;2023-07-16T14:36:03;25.00;99.90
12872;DHT22;6504;53.766;9.626;2023-07-16T14:38:31;25.10;99.90
12872;DHT22;6504;53.766;9.626;2023-07-16T14:40:59;25.10;99.90
12872;DHT22;6504;53.766;9.626;2023-07-16T14:43:27;25.20;99.90
12872;DHT22;6504;53.766;9.626;2023-07-16T14:45:55;25.20;99.90
12872;DHT22;6504;53.766;9.626;2023-07-16T14:48:23;25.30;99.90
12872;DHT22;6504;53.766;9.626;2023-07-16T14:50:54;25.30;99.90
12872;DHT22;6504;53.766;9.626;2023-07-16T14:53:23;25.20;99.90
12872;DHT22;6504;53.766;9.626;2023-07-16T14:55:52;25.30;99.90
12872;DHT22;6504;53.766;9.626;2023-07-16T14:58:20;25.30;99.90
12872;DHT22;6504;53.766;9.626;2023-07-16T15:00:48;25.30;99.90
12872;DHT22;6504;53.766;9.626;2023-07-16T15:03:16;25.40;99.90
12872;DHT22;6504;53.766;9.626;2023-07-16T15:05:45;25.40;99.90
12872;DHT22;6504;53.766;9.626;2023-07-16T15:08:13;25.50;99.90
12872;DHT22;6504;53.766;9.626;2023-07-16T15:10:43;25.40;99.90
12872;DHT22;6504;53.766;9.626;2023-07-16T15:13:11;25.40;99.90
12872;DHT22;6504;53.766;9.626;2023-07-16T15:15:39;25.30;99.90
12872;DHT22;6504;53.766;9.626;2023-07-16T15:18:07;25.30;99.90
12872;DHT22;6504;53.766;9.626;2023-07-16T15:20:35;25.30;99.90
12872;DHT22;6504;53.766;9.626;2023-07-16T15:23:04;25.30;99.90
12872;DHT22;6504;53.766;9.626;2023-07-16T15:25:32;25.30;99.90
12872;DHT22;6504;53.766;9.626;2023-07-16T15:28:01;25.30;99.90
12872;DHT22;6504;53.766;9.626;2023-07-16T15:30:29;25.20;99.90
12872;DHT22;6504;53.766;9.626;2023-07-16T15:32:57;25.10;99.90
12872;DHT22;6504;53.766;9.626;2023-07-16T15:35:25;25.00;99.90
12872;DHT22;6504;53.766;9.626;2023-07-16T15:37:53;24.90;99.90
12872;DHT22;6504;53.766;9.626;2023-07-16T15:40:23;24.80;99.90
12872;DHT22;6504;53.766;9.626;2023-07-16T15:42:51;24.70;99.90
12872;DHT22;6504;53.766;9.626;2023-07-16T15:45:21;24.50;99.90
12872;DHT22;6504;53.766;9.626;2023-07-16T15:47:49;24.40;99.90
12872;DHT22;6504;53.766;9.626;2023-07-16T15:50:24;24.20;99.90
12872;DHT22;6504;53.766;9.626;2023-07-16T15:52:53;24.00;99.90
12872;DHT22;6504;53.766;9.626;2023-07-16T15:55:22;23.70;99.90